Aérodrome :







RETROUVEZ-NOUS SUR...

 
LOGIN :

S'inscrire | Disclaimer

   EN    FR    IT 

 









Légende :    VFR   VFR Marginal   IFR   IFR Intensif   IFR Très Intensif
Visi : 
Plafond : 
>= 8 km
>= 3000ft
5 à 8 km
1000 à 3000 ft
1500m à 5 km
500 à 1000 ft
800 à 1500m
200 à 500 ft
< 800m
< 200 ft
Symboles :   Orages  Brouillard  Fortes neiges  Fortes précipitations  Vent > 20 kt







- Altitude de l'aérodrome : 603 ft
- Code IATA : LEB


KLEB - Lebanon Municipal

DERNIER METAR :
  • 162353Z 00000KT 10SM CLR 11/07 A3006 RMK AO2 SLP177 T01110067 10222 20111 51012

METARs EXPIRÉS :
  • 162253Z 36004KT 10SM CLR 17/06 A3005 RMK AO2 SLP174 T01720056
  • 162153Z 34006KT 10SM CLR 20/06 A3004 RMK AO2 SLP168 T02000056

TAF KLEB
Valide du 17 à 00h jusqu'au 18 à 00h UTC


162336Z 1700/1724 VRB03KT P6SM SKC
FM170700 00000KT 1/2SM FG BKN001
FM171300 35007KT P6SM SCT050
Pas de NOTAMs connus pour ce terrain.



MET'MAP, la Météo Aéronautique d'un coup d'oeil ! - Copyright ORBIFLY Décembre 2007 - Disclaimer

ORBIFLY MET'MAP TEAM :

Programmation & Développement : Alexandra Zaïnal
Conception & Développement : Baudouin d'Aumeries
Co-Programmation & Développement : Marc-Olivier Méhu
Soutien technique & logistique : Manuel Goepfert

Contact : metmap@orbifly.com




SOURCES & CREDITS :

   NOAA